createdAt,value
2019-01-29T00:03:30.285Z,1.00
2019-01-29T00:07:41.211Z,1.10
2019-01-29T00:11:52.178Z,1.00
2019-01-29T00:16:03.178Z,1.00
2019-01-29T00:20:14.116Z,1.00
2019-01-29T00:24:25.028Z,1.10
2019-01-29T00:28:36.137Z,1.10
2019-01-29T00:32:47.276Z,1.10
2019-01-29T00:36:58.321Z,1.10
2019-01-29T00:41:08.259Z,1.10
2019-01-29T00:45:19.150Z,1.10
2019-01-29T00:49:30.147Z,1.10
2019-01-29T00:53:41.177Z,1.00
2019-01-29T00:57:54.083Z,1.00
2019-01-29T01:02:05.108Z,1.00
2019-01-29T01:06:16.037Z,1.00
2019-01-29T01:10:27.066Z,1.00
2019-01-29T01:14:37.989Z,1.00
2019-01-29T01:18:48.813Z,1.00
2019-01-29T01:22:59.846Z,0.80
2019-01-29T01:27:10.863Z,0.70
2019-01-29T01:31:21.897Z,0.60
2019-01-29T01:35:32.695Z,0.50
2019-01-29T01:39:44.454Z,0.40
2019-01-29T01:43:55.223Z,0.40
2019-01-29T01:48:06.137Z,0.40
2019-01-29T01:52:17.103Z,0.30
2019-01-29T01:56:28.083Z,0.30
2019-01-29T02:00:39.162Z,0.30
2019-01-29T02:04:49.999Z,0.30
2019-01-29T02:09:01.071Z,0.30
2019-01-29T02:13:12.216Z,0.30
2019-01-29T02:17:23.311Z,0.30
2019-01-29T02:21:34.197Z,0.30
2019-01-29T02:25:45.142Z,0.20
2019-01-29T02:29:56.483Z,0.20
2019-01-29T02:34:08.433Z,0.20
2019-01-29T02:38:19.393Z,0.10
2019-01-29T02:42:30.421Z,0.20
2019-01-29T02:46:41.417Z,0.20
2019-01-29T02:50:52.452Z,0.20
2019-01-29T02:55:21.743Z,0.20
2019-01-29T03:00:10.036Z,0.10
2019-01-29T03:04:39.592Z,0.20
2019-01-29T03:09:08.477Z,0.20
2019-01-29T03:13:19.465Z,0.20
2019-01-29T03:17:30.628Z,0.20
2019-01-29T03:21:41.444Z,0.20
2019-01-29T03:25:54.820Z,0.10
2019-01-29T03:30:09.290Z,0.20
2019-01-29T03:34:20.208Z,0.10
2019-01-29T03:38:31.324Z,0.20
2019-01-29T03:42:42.361Z,0.10
2019-01-29T03:46:53.155Z,0.20
2019-01-29T03:51:04.036Z,0.20
2019-01-29T03:55:16.127Z,0.20
2019-01-29T03:59:28.466Z,0.10
2019-01-29T04:03:39.514Z,0.10
2019-01-29T04:07:50.806Z,0.10
2019-01-29T04:12:02.045Z,0.10
2019-01-29T04:16:13.203Z,0.10
2019-01-29T04:20:24.463Z,0.10
2019-01-29T04:24:35.433Z,0.10
2019-01-29T04:28:46.361Z,0.10
2019-01-29T04:32:57.400Z,0.00
2019-01-29T04:37:08.220Z,0.00
2019-01-29T04:41:19.230Z,0.00
2019-01-29T04:45:31.323Z,0.00
2019-01-29T04:49:42.462Z,0.10
2019-01-29T04:53:57.632Z,0.10
2019-01-29T04:58:05.819Z,0.10
2019-01-29T05:02:16.819Z,0.10
2019-01-29T05:06:27.832Z,0.10
2019-01-29T05:10:40.181Z,0.10
2019-01-29T05:14:51.312Z,0.10
2019-01-29T05:19:02.327Z,0.10
2019-01-29T05:23:13.372Z,0.20
2019-01-29T05:27:24.303Z,0.20
2019-01-29T05:31:35.484Z,0.20
2019-01-29T05:35:46.578Z,0.20
2019-01-29T05:39:57.522Z,0.30
2019-01-29T05:44:08.463Z,0.30
2019-01-29T05:48:19.762Z,0.30
2019-01-29T05:52:30.999Z,0.30
2019-01-29T05:56:42.020Z,0.30
2019-01-29T06:00:52.821Z,0.30
2019-01-29T06:05:08.208Z,0.30
2019-01-29T06:09:20.512Z,0.30
2019-01-29T06:13:31.354Z,0.30
2019-01-29T06:17:42.283Z,0.40
2019-01-29T06:21:54.358Z,0.40
2019-01-29T06:26:06.445Z,0.40
2019-01-29T06:30:19.415Z,0.40
2019-01-29T06:34:30.260Z,0.50
2019-01-29T06:38:41.493Z,0.50
2019-01-29T06:43:08.643Z,0.50
2019-01-29T06:47:35.878Z,0.50
2019-01-29T06:52:03.317Z,0.50
2019-01-29T06:56:30.920Z,0.50
2019-01-29T07:00:58.570Z,0.50
2019-01-29T07:05:26.610Z,0.50
2019-01-29T07:09:53.849Z,0.50
2019-01-29T07:14:20.987Z,0.50
2019-01-29T07:18:50.081Z,0.60
2019-01-29T07:23:17.243Z,0.60
2019-01-29T07:27:44.976Z,0.70
2019-01-29T07:32:12.503Z,0.70
2019-01-29T07:36:39.760Z,0.70
2019-01-29T07:41:07.514Z,0.70
2019-01-29T07:45:35.012Z,0.80
2019-01-29T07:50:02.701Z,0.80
2019-01-29T07:54:33.388Z,0.90
2019-01-29T07:58:59.143Z,1.00
2019-01-29T08:03:27.126Z,1.00
2019-01-29T08:07:54.110Z,1.00
2019-01-29T08:12:21.527Z,1.10
2019-01-29T08:16:49.137Z,1.20
2019-01-29T08:21:16.686Z,1.30
2019-01-29T08:25:47.959Z,1.30
2019-01-29T08:30:17.987Z,1.40
2019-01-29T08:34:45.788Z,1.50
2019-01-29T08:39:13.269Z,1.60
2019-01-29T08:43:40.274Z,1.70
2019-01-29T08:48:07.841Z,1.80
2019-01-29T08:52:34.508Z,1.90
2019-01-29T08:57:01.687Z,1.90
2019-01-29T09:01:29.589Z,1.90
2019-01-29T09:05:58.409Z,1.80
2019-01-29T09:10:25.766Z,2.10
2019-01-29T09:14:54.008Z,4.10
2019-01-29T09:19:22.332Z,3.40
2019-01-29T09:23:49.731Z,2.90
2019-01-29T09:28:18.677Z,2.60
2019-01-29T09:32:46.291Z,2.70
2019-01-29T09:37:13.858Z,2.70
2019-01-29T09:41:41.477Z,2.80
2019-01-29T09:46:08.794Z,2.70
2019-01-29T09:50:36.138Z,2.70
2019-01-29T09:55:05.265Z,2.60
2019-01-29T09:59:32.607Z,2.60
2019-01-29T10:04:00.399Z,2.60
2019-01-29T10:08:27.565Z,2.60
2019-01-29T10:12:54.673Z,2.60
2019-01-29T10:17:22.641Z,2.60
2019-01-29T10:21:49.659Z,2.60
2019-01-29T10:26:17.021Z,2.70
2019-01-29T10:30:43.992Z,2.70
2019-01-29T10:35:13.857Z,2.80
2019-01-29T10:39:41.395Z,2.90
2019-01-29T10:44:08.850Z,3.00
2019-01-29T10:48:35.894Z,3.30
2019-01-29T10:53:03.077Z,4.70
2019-01-29T10:57:29.986Z,6.30
2019-01-29T11:01:57.529Z,5.00
2019-01-29T11:06:25.182Z,4.30
2019-01-29T11:10:52.388Z,4.30
2019-01-29T11:15:25.676Z,4.20
2019-01-29T11:19:53.268Z,5.20
2019-01-29T11:24:20.364Z,4.60
2019-01-29T11:28:47.664Z,4.00
2019-01-29T11:33:15.411Z,3.70
2019-01-29T11:37:42.613Z,3.60
2019-01-29T11:42:10.392Z,3.60
2019-01-29T11:46:38.149Z,3.60
2019-01-29T11:51:05.410Z,3.60
2019-01-29T11:55:32.472Z,3.60
2019-01-29T11:59:59.921Z,3.70
2019-01-29T12:04:27.212Z,3.80
2019-01-29T12:08:54.993Z,4.10
2019-01-29T12:13:22.830Z,4.20
2019-01-29T12:17:50.609Z,4.10
2019-01-29T12:22:17.675Z,4.10
2019-01-29T12:26:46.040Z,4.00
2019-01-29T12:31:14.866Z,4.00
2019-01-29T12:35:44.734Z,3.90
2019-01-29T12:40:14.138Z,4.00
2019-01-29T12:44:47.815Z,3.90
2019-01-29T12:49:17.289Z,4.00
2019-01-29T12:53:49.214Z,4.00
2019-01-29T12:58:20.579Z,4.00
2019-01-29T13:02:49.791Z,4.00
2019-01-29T13:07:20.417Z,3.90
2019-01-29T13:20:50.645Z,3.80
2019-01-29T13:25:17.809Z,3.80
2019-01-29T13:29:44.815Z,3.90
2019-01-29T13:34:12.683Z,3.90
2019-01-29T13:38:33.172Z,3.90
2019-01-29T13:42:43.975Z,3.90
2019-01-29T13:46:54.900Z,4.00
2019-01-29T13:51:05.845Z,4.20
2019-01-29T13:55:17.278Z,4.20
2019-01-29T13:59:29.175Z,4.10
2019-01-29T14:03:40.439Z,4.00
2019-01-29T14:07:51.255Z,3.90
2019-01-29T14:12:02.137Z,3.80
2019-01-29T14:16:12.959Z,3.70
2019-01-29T14:20:23.766Z,3.60
2019-01-29T14:24:34.571Z,3.60
2019-01-29T14:28:45.375Z,3.60
2019-01-29T14:32:56.288Z,3.60
2019-01-29T14:37:07.232Z,3.60
2019-01-29T14:41:18.156Z,3.70
2019-01-29T14:45:30.992Z,3.60
2019-01-29T14:49:41.820Z,3.60
2019-01-29T14:53:52.655Z,3.60
2019-01-29T14:58:04.033Z,3.60
2019-01-29T15:02:14.990Z,3.60
2019-01-29T15:06:32.360Z,3.60
2019-01-29T15:10:38.236Z,3.60
2019-01-29T15:14:49.143Z,3.50
2019-01-29T15:19:01.593Z,3.50
2019-01-29T15:23:12.476Z,3.40
2019-01-29T15:27:23.693Z,3.30
2019-01-29T15:31:34.593Z,3.30
2019-01-29T15:35:45.402Z,3.30
2019-01-29T15:39:56.317Z,3.20
2019-01-29T15:44:07.107Z,3.20
2019-01-29T15:48:17.918Z,3.20
2019-01-29T15:52:28.768Z,3.10
2019-01-29T15:56:39.785Z,2.90
2019-01-29T16:00:50.606Z,2.90
2019-01-29T16:05:01.530Z,2.80
2019-01-29T16:09:12.436Z,2.80
2019-01-29T16:13:23.353Z,2.70
2019-01-29T16:17:34.270Z,2.70
2019-01-29T16:21:45.078Z,2.60
2019-01-29T16:25:56.106Z,2.60
2019-01-29T16:30:15.857Z,2.50
2019-01-29T16:34:30.066Z,2.40
2019-01-29T16:38:40.857Z,2.40
2019-01-29T16:42:52.003Z,2.30
2019-01-29T16:47:02.981Z,2.30
2019-01-29T16:51:13.716Z,2.30
2019-01-29T16:55:24.619Z,2.20
2019-01-29T16:59:35.419Z,2.20
2019-01-29T17:03:46.229Z,2.20
2019-01-29T17:07:57.175Z,2.20
2019-01-29T17:12:08.084Z,2.10
2019-01-29T17:16:19.841Z,2.00
2019-01-29T17:20:41.615Z,1.90
2019-01-29T17:24:52.432Z,1.80
2019-01-29T17:29:03.248Z,1.70
2019-01-29T17:33:19.408Z,1.60
2019-01-29T17:37:31.672Z,1.60
2019-01-29T17:41:46.251Z,1.50
2019-01-29T17:45:57.173Z,1.40
2019-01-29T17:50:13.994Z,1.30
2019-01-29T17:54:24.965Z,1.20
2019-01-29T17:58:36.789Z,1.10
2019-01-29T18:02:47.673Z,1.10
2019-01-29T18:06:58.291Z,1.10
2019-01-29T18:11:09.505Z,1.00
2019-01-29T18:15:25.650Z,0.90
2019-01-29T18:19:37.234Z,0.90
2019-01-29T18:23:48.145Z,0.80
2019-01-29T18:28:01.393Z,0.80
2019-01-29T18:32:11.526Z,0.70
2019-01-29T18:36:22.611Z,0.60
2019-01-29T18:40:42.463Z,0.60
2019-01-29T18:44:53.295Z,0.50
2019-01-29T18:49:04.404Z,0.50
2019-01-29T18:53:15.357Z,0.40
2019-01-29T18:57:26.269Z,0.40
2019-01-29T19:01:37.288Z,0.40
2019-01-29T19:05:48.196Z,0.40
2019-01-29T19:09:59.113Z,0.40
2019-01-29T19:14:10.077Z,0.40
2019-01-29T19:18:20.979Z,0.40
2019-01-29T19:22:31.865Z,0.30
2019-01-29T19:26:41.905Z,0.30
2019-01-29T19:30:52.972Z,0.30
2019-01-29T19:35:04.392Z,0.20
2019-01-29T19:39:15.515Z,0.10
2019-01-29T19:43:26.461Z,0.10
2019-01-29T19:47:38.014Z,0.00
2019-01-29T19:51:49.182Z,0.00
2019-01-29T19:56:00.139Z,0.00
2019-01-29T20:00:23.369Z,0.00
2019-01-29T20:04:34.656Z,0.00
2019-01-29T20:08:45.635Z,-0.10
2019-01-29T20:12:56.456Z,-0.10
2019-01-29T20:17:07.379Z,-0.20
2019-01-29T20:21:18.213Z,-0.20
2019-01-29T20:25:29.136Z,-0.20
2019-01-29T20:29:39.943Z,-0.20
2019-01-29T20:33:50.761Z,-0.30
2019-01-29T20:38:01.699Z,-0.30
2019-01-29T20:42:12.616Z,-0.40
2019-01-29T20:46:23.431Z,-0.40
2019-01-29T20:50:36.607Z,-0.40
2019-01-29T20:54:47.416Z,-0.40
2019-01-29T20:58:59.311Z,-0.50
2019-01-29T21:03:10.348Z,-0.50
2019-01-29T21:07:21.264Z,-0.50
2019-01-29T21:11:32.193Z,-0.50
2019-01-29T21:15:43.011Z,-0.50
2019-01-29T21:19:53.838Z,-0.50
2019-01-29T21:24:04.780Z,-0.50
2019-01-29T21:28:15.699Z,-0.40
2019-01-29T21:32:26.518Z,-0.40
2019-01-29T21:36:37.487Z,-0.50
2019-01-29T21:40:48.410Z,-0.50
2019-01-29T21:44:59.209Z,-0.40
2019-01-29T21:49:10.033Z,-0.40
2019-01-29T21:53:20.868Z,-0.30
2019-01-29T21:57:31.696Z,-0.30
2019-01-29T22:01:42.527Z,-0.40
2019-01-29T22:05:53.343Z,-0.40
2019-01-29T22:10:06.720Z,-0.40
2019-01-29T22:14:17.563Z,-0.40
2019-01-29T22:18:28.494Z,-0.50
2019-01-29T22:22:39.435Z,-0.50
2019-01-29T22:26:50.556Z,-0.50
2019-01-29T22:31:01.474Z,-0.50
2019-01-29T22:35:12.383Z,-0.60
2019-01-29T22:39:23.311Z,-0.60
2019-01-29T22:43:34.259Z,-0.60
2019-01-29T22:47:45.612Z,-0.60
2019-01-29T22:51:55.444Z,-0.60
2019-01-29T22:56:06.393Z,-0.70
2019-01-29T23:00:55.934Z,-0.70
2019-01-29T23:05:08.735Z,-0.80
2019-01-29T23:09:19.584Z,-0.90
2019-01-29T23:13:30.443Z,-0.90
2019-01-29T23:17:42.332Z,-1.00
2019-01-29T23:21:53.349Z,-1.00
2019-01-29T23:26:04.215Z,-1.10
2019-01-29T23:30:21.440Z,-1.10
2019-01-29T23:34:34.100Z,-1.10
2019-01-29T23:38:47.382Z,-1.10
2019-01-29T23:42:57.395Z,-1.20
2019-01-29T23:47:08.375Z,-1.10
2019-01-29T23:51:19.196Z,-1.20
2019-01-29T23:55:30.128Z,-1.20
2019-01-29T23:59:40.059Z,-1.20
